Time;durP1;ratioP1;P1;durP2;ratioP2;P2;SDS_P1;SDS_P2;PMS_P1;PMS_P2;Temp;Humidity;BMP_temperature;BMP_pressure;BME280_temperature;BME280_humidity;BME280_pressure;Samples;Min_cycle;Max_cycle;Signal;HPM_P1;HPM_P2
2022/07/31 00:00:08;;;;;;;14.73;5.75;;;;;;;20.20;67.78;101555.13;4665836;30;20045;-72
2022/07/31 00:02:34;;;;;;;8.18;5.40;;;;;;;20.14;68.21;101547.94;4679008;30;20112;-72
2022/07/31 00:04:59;;;;;;;10.65;5.63;;;;;;;20.19;67.03;101551.53;4668152;30;20465;-72
2022/07/31 00:07:25;;;;;;;10.38;6.03;;;;;;;20.17;66.89;101550.19;4699356;30;20065;-72
2022/07/31 00:09:50;;;;;;;10.77;6.18;;;;;;;20.14;66.62;101548.81;4698115;30;20042;-72
2022/07/31 00:12:16;;;;;;;10.98;6.07;;;;;;;20.16;67.25;101545.78;4698681;30;20033;-72
2022/07/31 00:14:41;;;;;;;10.07;6.35;;;;;;;20.01;68.47;101547.38;4699666;30;20441;-72
2022/07/31 00:17:06;;;;;;;9.70;6.60;;;;;;;19.97;67.59;101546.31;4698532;30;20162;-72
2022/07/31 00:19:32;;;;;;;15.73;6.80;;;;;;;19.89;67.56;101546.00;4698264;30;20038;-72
2022/07/31 00:21:57;;;;;;;11.40;6.32;;;;;;;19.76;68.08;101536.31;4698536;30;20478;-72
2022/07/31 00:24:23;;;;;;;10.13;6.28;;;;;;;19.75;67.91;101540.16;4699794;30;20064;-72
2022/07/31 00:26:48;;;;;;;12.10;6.35;;;;;;;19.71;68.34;101541.78;4697859;30;20033;-72
2022/07/31 00:29:13;;;;;;;10.75;6.63;;;;;;;19.71;67.68;101536.31;4683492;30;20056;-72
2022/07/31 00:31:39;;;;;;;11.15;6.65;;;;;;;19.69;68.32;101535.72;4698666;30;20046;-72
2022/07/31 00:34:04;;;;;;;10.15;6.55;;;;;;;19.69;68.23;101535.72;4699690;30;20043;-72
2022/07/31 00:36:29;;;;;;;14.75;5.90;;;;;;;19.68;67.70;101539.59;4699059;30;20033;-72
2022/07/31 00:38:54;;;;;;;10.88;5.95;;;;;;;19.69;68.11;101547.56;4697271;30;20045;-72
2022/07/31 00:41:20;;;;;;;12.15;6.22;;;;;;;19.71;67.65;101550.03;4698608;30;20033;-72
2022/07/31 00:43:45;;;;;;;9.93;6.18;;;;;;;19.76;67.29;101541.81;4698766;30;20355;-72
2022/07/31 00:46:10;;;;;;;13.77;6.90;;;;;;;19.75;67.67;101551.97;4698910;30;20044;-72
2022/07/31 00:48:36;;;;;;;10.35;5.78;;;;;;;19.76;67.58;101539.06;4698652;30;20040;-72
2022/07/31 00:51:01;;;;;;;10.52;6.47;;;;;;;19.78;67.52;101542.41;4697433;30;20033;-72
2022/07/31 00:53:26;;;;;;;9.88;6.55;;;;;;;19.72;68.31;101543.47;4699426;30;20034;-72
2022/07/31 00:55:51;;;;;;;10.38;6.07;;;;;;;19.66;68.17;101534.38;4698914;30;20049;-72
2022/07/31 00:58:17;;;;;;;12.07;5.63;;;;;;;19.69;67.27;101533.84;4698755;30;20072;-72
2022/07/31 01:00:42;;;;;;;11.77;6.03;;;;;;;19.72;67.41;101524.25;4696109;30;20042;-72
2022/07/31 01:03:08;;;;;;;11.00;5.85;;;;;;;19.71;67.58;101528.88;4699395;30;20467;-72
2022/07/31 01:05:33;;;;;;;8.95;6.10;;;;;;;19.71;67.63;101522.56;4695565;30;20046;-72
2022/07/31 01:07:58;;;;;;;11.50;6.38;;;;;;;19.68;67.91;101525.88;4681427;30;20040;-71
2022/07/31 01:10:56;;;;;;;12.30;6.03;;;;;;;19.70;67.54;101520.91;4681073;30;20034;-72
2022/07/31 01:13:54;;;;;;;12.73;6.72;;;;;;;19.68;67.94;101534.91;4662449;30;20504;-72
2022/07/31 01:16:22;;;;;;;11.65;6.60;;;;;;;19.58;68.64;101529.38;4676760;30;20058;-72
2022/07/31 01:18:48;;;;;;;8.77;6.45;;;;;;;19.51;70.83;101532.41;4681223;30;20104;-71
2022/07/31 01:21:38;;;;;;;9.40;6.47;;;;;;;19.57;70.00;101536.81;4679976;30;20046;-71
2022/07/31 01:24:38;;;;;;;10.95;6.32;;;;;;;19.56;70.23;101531.59;4665254;30;20042;-71
2022/07/31 01:27:33;;;;;;;12.70;6.50;;;;;;;19.52;69.89;101530.47;4680907;30;20033;-71
2022/07/31 01:30:02;;;;;;;15.48;7.05;;;;;;;19.52;69.82;101524.97;4664876;30;20532;-75
2022/07/31 01:32:37;;;;;;;8.15;6.22;;;;;;;19.51;71.95;101521.41;4681199;30;20049;-74
2022/07/31 01:35:13;;;;;;;11.38;6.60;;;;;;;19.46;71.83;101521.38;4681069;30;20368;-71
2022/07/31 01:37:44;;;;;;;10.27;6.30;;;;;;;19.45;72.85;101525.22;4675824;30;20499;-71
2022/07/31 01:40:14;;;;;;;10.53;6.20;;;;;;;19.43;73.94;101520.00;4680958;30;20101;-71
2022/07/31 01:42:43;;;;;;;10.68;6.63;;;;;;;19.44;72.18;101518.09;4664618;30;20058;-71
2022/07/31 01:45:11;;;;;;;14.88;6.47;;;;;;;19.44;71.91;101520.81;4670857;30;20425;-72
2022/07/31 01:47:38;;;;;;;9.57;5.75;;;;;;;19.37;75.03;101512.00;4681677;30;20030;-72
2022/07/31 01:50:07;;;;;;;8.77;6.18;;;;;;;19.38;73.67;101524.66;4680433;30;20100;-72
2022/07/31 01:52:33;;;;;;;9.80;6.43;;;;;;;19.36;73.21;101521.34;4666370;30;20053;-72
2022/07/31 01:55:01;;;;;;;9.43;6.18;;;;;;;19.31;71.21;101511.19;4682712;30;20065;-72
2022/07/31 01:57:28;;;;;;;8.88;6.65;;;;;;;19.26;71.32;101517.47;4683722;30;20125;-72
2022/07/31 01:59:57;;;;;;;11.20;6.63;;;;;;;19.26;70.89;101516.63;4684140;30;20037;-72
2022/07/31 02:02:25;;;;;;;13.52;6.95;;;;;;;19.22;70.87;101516.34;4680456;30;20056;-72
2022/07/31 02:04:51;;;;;;;15.23;6.63;;;;;;;19.21;70.82;101517.44;4684856;30;20035;-72
2022/07/31 02:07:18;;;;;;;10.48;6.30;;;;;;;19.11;73.05;101520.97;4682344;30;20142;-72
2022/07/31 02:09:46;;;;;;;14.38;6.47;;;;;;;19.10;73.91;101518.50;4684370;30;20096;-72
2022/07/31 02:12:11;;;;;;;14.77;6.63;;;;;;;19.12;73.26;101516.28;4683650;30;20030;-72
2022/07/31 02:14:39;;;;;;;12.05;6.22;;;;;;;19.12;75.03;101511.63;4684236;30;20033;-72
2022/07/31 02:17:06;;;;;;;13.73;6.57;;;;;;;19.12;74.22;101517.13;4683416;30;20108;-72
2022/07/31 02:19:33;;;;;;;14.73;6.30;;;;;;;19.08;74.04;101513.28;4684384;30;20074;-72
2022/07/31 02:21:59;;;;;;;10.65;6.20;;;;;;;19.06;73.52;101509.13;4683748;30;20398;-72
2022/07/31 02:24:24;;;;;;;13.40;6.53;;;;;;;19.07;72.84;101505.31;4683097;30;20045;-72
2022/07/31 02:26:51;;;;;;;11.13;6.47;;;;;;;19.04;74.98;101514.06;4681635;30;20464;-71
2022/07/31 02:29:18;;;;;;;18.85;6.88;;;;;;;19.03;73.73;101517.91;4683898;30;20041;-72
2022/07/31 02:31:47;;;;;;;12.13;7.05;;;;;;;18.98;73.71;101518.69;4683330;30;20038;-72
2022/07/31 02:34:13;;;;;;;15.63;7.35;;;;;;;18.93;74.18;101519.50;4684347;30;20482;-72
2022/07/31 02:36:40;;;;;;;13.35;7.25;;;;;;;18.86;74.81;101515.34;4682339;30;20034;-72
2022/07/31 02:39:07;;;;;;;14.43;7.45;;;;;;;18.87;75.07;101512.34;4683999;30;20042;-72
2022/07/31 02:41:34;;;;;;;13.20;7.18;;;;;;;18.87;75.36;101526.03;4682287;30;20034;-72
2022/07/31 02:44:00;;;;;;;13.90;7.13;;;;;;;18.86;76.49;101513.41;4684188;30;20108;-72
2022/07/31 02:46:26;;;;;;;11.18;7.45;;;;;;;18.87;77.17;101515.06;4682935;30;20034;-72
2022/07/31 02:48:53;;;;;;;11.10;7.30;;;;;;;18.84;79.20;101509.25;4683885;30;20177;-72
2022/07/31 02:51:19;;;;;;;13.32;7.80;;;;;;;18.80;82.17;101516.38;4683092;30;20613;-72
2022/07/31 02:53:45;;;;;;;11.20;7.38;;;;;;;18.85;78.43;101506.25;4682357;30;20037;-72
2022/07/31 02:56:11;;;;;;;13.00;7.90;;;;;;;18.83;77.61;101500.19;4682509;30;20467;-72
2022/07/31 02:58:40;;;;;;;12.95;7.05;;;;;;;18.87;77.68;101509.59;4667945;30;20041;-72
2022/07/31 03:01:06;;;;;;;13.57;7.65;;;;;;;18.86;77.49;101493.41;4679766;30;20045;-72
2022/07/31 03:03:31;;;;;;;11.15;7.18;;;;;;;18.84;77.67;101492.78;4683819;30;20046;-72
2022/07/31 03:05:57;;;;;;;12.85;7.25;;;;;;;18.82;77.95;101484.81;4681559;30;20054;-72
2022/07/31 03:08:22;;;;;;;12.98;7.00;;;;;;;18.83;77.93;101491.16;4683821;30;20364;-72
2022/07/31 03:10:48;;;;;;;15.82;7.28;;;;;;;18.75;78.38;101496.03;4680868;30;20042;-71
2022/07/31 03:13:15;;;;;;;10.43;6.85;;;;;;;18.69;77.94;101488.03;4680910;30;20041;-71
2022/07/31 03:15:42;;;;;;;13.48;7.18;;;;;;;18.64;79.09;101488.81;4667914;30;20042;-71
2022/07/31 03:18:10;;;;;;;15.88;8.00;;;;;;;18.60;78.38;101488.53;4682945;30;20045;-71
2022/07/31 03:20:37;;;;;;;13.55;7.65;;;;;;;18.63;78.23;101483.59;4682536;30;20034;-72
2022/07/31 03:23:03;;;;;;;13.23;7.85;;;;;;;18.57;77.57;101493.72;4682673;30;20391;-72
2022/07/31 03:25:30;;;;;;;11.45;7.43;;;;;;;18.56;77.84;101484.66;4668019;30;20045;-71
2022/07/31 03:27:56;;;;;;;11.40;7.78;;;;;;;18.51;77.70;101486.53;4682732;30;20077;-71
2022/07/31 03:30:25;;;;;;;14.75;7.72;;;;;;;18.50;77.72;101487.63;4681729;30;20155;-71
2022/07/31 03:32:51;;;;;;;15.68;8.38;;;;;;;18.53;77.75;101484.38;4681817;30;20045;-71
2022/07/31 03:35:17;;;;;;;12.10;7.95;;;;;;;18.51;77.83;101483.78;4683323;30;20460;-71
2022/07/31 03:37:42;;;;;;;11.38;8.27;;;;;;;18.51;82.19;101479.16;4682331;30;20038;-72
2022/07/31 03:40:08;;;;;;;14.20;8.10;;;;;;;18.53;81.20;101470.66;4682501;30;20030;-71
2022/07/31 03:42:34;;;;;;;10.57;8.32;;;;;;;18.54;83.08;101478.63;4681062;30;20042;-71
2022/07/31 03:45:01;;;;;;;14.57;8.52;;;;;;;18.52;81.90;101477.22;4683204;30;20034;-72
2022/07/31 03:47:26;;;;;;;12.05;8.95;;;;;;;18.52;80.77;101478.03;4682412;30;20096;-72
2022/07/31 03:49:52;;;;;;;17.67;9.52;;;;;;;18.53;78.95;101476.97;4682950;30;20038;-71
2022/07/31 03:52:18;;;;;;;15.02;9.40;;;;;;;18.52;80.15;101480.78;4681875;30;20045;-71
2022/07/31 03:54:43;;;;;;;23.45;9.90;;;;;;;18.50;79.73;101472.00;4681335;30;20034;-72
2022/07/31 03:57:09;;;;;;;11.68;9.55;;;;;;;18.49;78.18;101489.53;4682989;30;20125;-72
2022/07/31 03:59:35;;;;;;;15.88;10.02;;;;;;;18.46;78.23;101481.84;4682447;30;20115;-72
2022/07/31 04:02:00;;;;;;;14.35;9.70;;;;;;;18.49;78.43;101477.75;4679703;30;20038;-72
2022/07/31 04:04:26;;;;;;;13.35;9.68;;;;;;;18.45;78.31;101482.94;4665110;30;20068;-71
2022/07/31 04:06:51;;;;;;;16.70;9.38;;;;;;;18.42;78.19;101473.34;4682129;30;20065;-71
2022/07/31 04:09:16;;;;;;;16.35;10.00;;;;;;;18.45;78.44;101484.84;4667218;30;20449;-72
2022/07/31 04:11:42;;;;;;;14.40;9.65;;;;;;;18.48;78.30;101489.78;4681382;30;20044;-72
2022/07/31 04:14:07;;;;;;;15.23;9.02;;;;;;;18.40;78.51;101483.75;4682208;30;20034;-71
2022/07/31 04:16:32;;;;;;;16.20;9.48;;;;;;;18.39;79.35;101476.59;4681690;30;20499;-72
2022/07/31 04:18:58;;;;;;;17.05;8.93;;;;;;;18.36;79.75;101490.00;4681750;30;20073;-71
2022/07/31 04:21:23;;;;;;;12.20;8.98;;;;;;;18.35;80.13;101491.91;4681857;30;20121;-72
2022/07/31 04:23:48;;;;;;;18.35;8.65;;;;;;;18.28;80.82;101495.94;4681736;30;20472;-71
2022/07/31 04:26:13;;;;;;;11.23;9.25;;;;;;;18.26;81.49;101496.22;4682310;30;20121;-72
2022/07/31 04:28:39;;;;;;;15.05;9.13;;;;;;;18.27;81.84;101500.63;4666121;30;20041;-72
2022/07/31 04:31:04;;;;;;;13.20;8.70;;;;;;;18.25;82.28;101494.56;4680368;30;20514;-72
2022/07/31 04:33:29;;;;;;;13.57;8.07;;;;;;;18.26;82.73;101495.41;4681476;30;20038;-71
2022/07/31 04:35:55;;;;;;;11.60;8.23;;;;;;;18.24;83.12;101496.47;4681648;30;20396;-71
2022/07/31 04:38:20;;;;;;;16.00;8.73;;;;;;;18.25;83.32;101502.78;4681789;30;20038;-72
2022/07/31 04:40:47;;;;;;;10.32;8.02;;;;;;;18.22;84.42;101504.13;4680454;30;20060;-72
2022/07/31 04:43:12;;;;;;;13.45;8.15;;;;;;;18.21;84.86;101512.63;4681547;30;20040;-71
2022/07/31 04:45:38;;;;;;;10.70;7.15;;;;;;;18.18;86.02;101491.22;4682586;30;20112;-72
2022/07/31 04:48:03;;;;;;;11.05;7.63;;;;;;;18.17;86.64;101495.84;4681418;30;20042;-72
2022/07/31 04:50:29;;;;;;;9.40;7.03;;;;;;;18.17;87.14;101495.84;4680948;30;20167;-72
2022/07/31 04:52:54;;;;;;;11.55;7.10;;;;;;;18.20;88.39;101492.59;4665821;30;20484;-71
2022/07/31 04:55:20;;;;;;;10.80;7.38;;;;;;;18.20;88.54;101484.38;4666745;30;20466;-72
2022/07/31 04:57:45;;;;;;;12.10;6.70;;;;;;;18.23;89.79;101494.00;4680086;30;20030;-72
2022/07/31 05:00:11;;;;;;;10.27;6.45;;;;;;;18.20;90.58;101484.38;4680926;30;20093;-71
2022/07/31 05:02:36;;;;;;;9.48;6.07;;;;;;;18.22;90.95;101495.91;4677738;30;20038;-71
2022/07/31 05:05:02;;;;;;;12.85;6.35;;;;;;;18.20;91.83;101480.81;4680689;30;20450;-72
2022/07/31 05:07:28;;;;;;;13.65;6.03;;;;;;;18.21;92.41;101493.44;4697485;30;20049;-71
2022/07/31 05:09:53;;;;;;;7.82;5.80;;;;;;;18.21;93.12;101487.97;4698442;30;20533;-71
2022/07/31 05:12:18;;;;;;;10.48;6.03;;;;;;;18.21;93.78;101483.31;4696128;30;20360;-71
2022/07/31 05:14:43;;;;;;;9.90;5.82;;;;;;;18.22;93.61;101482.22;4699125;30;20029;-72
2022/07/31 05:17:09;;;;;;;8.23;5.53;;;;;;;18.20;94.36;101473.41;4698492;30;20483;-72
2022/07/31 05:19:34;;;;;;;10.23;5.70;;;;;;;18.22;95.03;101471.25;4699324;30;20073;-71
2022/07/31 05:21:59;;;;;;;7.30;5.25;;;;;;;18.22;95.82;101468.53;4696518;30;20072;-72
2022/07/31 05:24:25;;;;;;;7.60;5.35;;;;;;;18.16;97.81;101477.78;4683694;30;20407;-72
2022/07/31 05:26:50;;;;;;;8.93;5.10;;;;;;;18.16;98.53;101480.53;4682827;30;20034;-72
2022/07/31 05:29:15;;;;;;;8.05;4.95;;;;;;;18.18;98.95;101483.81;4700246;30;20029;-72
2022/07/31 05:31:41;;;;;;;7.25;5.00;;;;;;;18.19;99.89;101476.41;4700134;30;20033;-72
2022/07/31 05:34:06;;;;;;;7.15;4.80;;;;;;;18.16;100.00;101477.78;4701726;30;20041;-72
2022/07/31 05:36:32;;;;;;;7.22;4.53;;;;;;;18.14;100.00;101465.44;4686920;30;20037;-71
2022/07/31 05:38:57;;;;;;;8.32;4.68;;;;;;;18.17;100.00;101467.66;4700791;30;20387;-72
2022/07/31 05:41:22;;;;;;;9.50;4.80;;;;;;;18.18;100.00;101463.84;4685239;30;20033;-72
2022/07/31 05:43:48;;;;;;;8.05;4.93;;;;;;;18.18;100.00;101466.56;4702169;30;20053;-72
2022/07/31 05:46:15;;;;;;;7.70;4.57;;;;;;;18.16;100.00;101475.06;4701545;30;20111;-72
2022/07/31 05:48:41;;;;;;;7.20;4.60;;;;;;;18.18;100.00;101475.59;4702256;30;20396;-72
2022/07/31 05:51:10;;;;;;;6.03;4.43;;;;;;;18.19;100.00;101477.28;4699392;30;20054;-72
2022/07/31 05:53:37;;;;;;;7.00;4.53;;;;;;;18.23;100.00;101481.13;4702236;30;20045;-71
2022/07/31 05:56:03;;;;;;;9.73;4.63;;;;;;;18.23;100.00;101478.38;4701254;30;20047;-71
2022/07/31 05:58:29;;;;;;;7.80;4.90;;;;;;;18.23;100.00;101466.59;4702140;30;20034;-72
2022/07/31 06:00:54;;;;;;;5.43;4.10;;;;;;;18.26;100.00;101473.47;4698190;30;20240;-72
2022/07/31 06:03:26;;;;;;;8.13;4.45;;;;;;;18.26;100.00;101468.00;4686498;30;20072;-71
2022/07/31 06:05:52;;;;;;;6.93;4.40;;;;;;;18.26;100.00;101471.56;4700990;30;20065;-72
2022/07/31 06:08:18;;;;;;;5.50;4.25;;;;;;;18.28;100.00;101469.38;4699190;30;20038;-71
2022/07/31 06:10:43;;;;;;;4.25;3.85;;;;;;;18.30;100.00;101466.38;4697892;30;20490;-72
2022/07/31 06:13:08;;;;;;;6.60;4.00;;;;;;;18.31;100.00;101476.25;4685204;30;20041;-72
2022/07/31 06:15:34;;;;;;;7.22;4.30;;;;;;;18.34;100.00;101475.72;4701841;30;20375;-72
2022/07/31 06:17:59;;;;;;;7.18;4.40;;;;;;;18.33;100.00;101480.38;4685321;30;20048;-72
2022/07/31 06:20:25;;;;;;;5.32;4.10;;;;;;;18.35;100.00;101477.38;4700513;30;20471;-71
2022/07/31 06:22:50;;;;;;;6.93;4.55;;;;;;;18.37;100.00;101467.81;4699854;30;20029;-72
2022/07/31 06:25:16;;;;;;;7.38;4.32;;;;;;;18.37;100.00;101473.31;4686109;30;20041;-72
2022/07/31 06:27:41;;;;;;;8.98;4.30;;;;;;;18.35;100.00;101463.69;4685610;30;20037;-72
2022/07/31 06:30:07;;;;;;;6.18;4.00;;;;;;;18.40;100.00;101463.72;4699446;30;20178;-72
2022/07/31 06:32:33;;;;;;;5.28;4.60;;;;;;;18.38;100.00;101458.50;4700794;30;20124;-72
2022/07/31 06:34:58;;;;;;;6.30;4.38;;;;;;;18.43;100.00;101454.97;4700660;30;20104;-72
2022/07/31 06:37:24;;;;;;;8.57;4.47;;;;;;;18.48;100.00;101462.41;4685892;30;20041;-72
2022/07/31 06:39:50;;;;;;;7.15;4.30;;;;;;;18.48;100.00;101468.72;4683236;30;20071;-72
2022/07/31 06:42:19;;;;;;;6.07;4.38;;;;;;;18.47;100.00;101461.59;4699762;30;20042;-72
2022/07/31 06:44:44;;;;;;;11.60;4.63;;;;;;;18.51;100.00;101468.19;4700709;30;20033;-71
2022/07/31 06:47:10;;;;;;;7.00;4.25;;;;;;;18.54;100.00;101459.44;4701044;30;20036;-72
2022/07/31 06:49:35;;;;;;;8.20;4.43;;;;;;;18.55;100.00;101466.56;4684999;30;20120;-72
2022/07/31 06:53:13;;;;;;;9.50;4.80;;;;;;;18.60;100.00;101476.75;4698662;30;20125;-72
2022/07/31 06:55:47;;;;;;;7.93;4.40;;;;;;;18.56;100.00;101459.19;4698572;30;20035;-72
2022/07/31 06:58:12;;;;;;;6.70;4.70;;;;;;;18.57;100.00;101469.88;4700190;30;20037;-72
2022/07/31 07:00:37;;;;;;;6.32;5.20;;;;;;;18.59;100.00;101458.66;4682497;30;20068;-72
2022/07/31 07:03:02;;;;;;;8.88;5.32;;;;;;;18.65;100.00;101463.06;4700028;30;20056;-72
2022/07/31 07:05:28;;;;;;;8.85;4.90;;;;;;;18.68;100.00;101456.25;4700631;30;20480;-72
2022/07/31 07:07:53;;;;;;;5.97;4.90;;;;;;;18.69;100.00;101455.97;4699014;30;20061;-72
2022/07/31 07:13:40;;;;;;;12.00;6.85;;;;;;;18.71;100.00;101462.00;4696972;30;20052;-72
2022/07/31 07:16:05;;;;;;;10.55;6.80;;;;;;;18.71;100.00;101458.44;4700650;30;20033;-72
2022/07/31 07:18:31;;;;;;;9.43;6.78;;;;;;;18.76;100.00;101464.78;4700396;30;20058;-72
2022/07/31 07:20:56;;;;;;;10.23;6.60;;;;;;;18.80;100.00;101467.00;4699278;30;20041;-72
2022/07/31 07:23:21;;;;;;;13.07;7.00;;;;;;;18.87;100.00;101470.34;4700806;30;20033;-72
2022/07/31 07:25:48;;;;;;;11.32;7.90;;;;;;;18.88;100.00;101461.84;4699569;30;20368;-72
2022/07/31 07:28:14;;;;;;;14.13;8.15;;;;;;;18.94;100.00;101463.53;4683775;30;20044;-78
2022/07/31 07:30:39;;;;;;;13.18;8.02;;;;;;;18.96;100.00;101460.53;4683511;30;20041;-76
2022/07/31 07:33:04;;;;;;;12.15;7.60;;;;;;;19.04;100.00;101460.03;4699113;30;20091;-73
2022/07/31 07:35:30;;;;;;;13.23;9.30;;;;;;;19.09;100.00;101451.00;4684321;30;20102;-78
2022/07/31 07:37:56;;;;;;;14.35;9.13;;;;;;;19.07;100.00;101448.53;4700268;30;20033;-77
2022/07/31 07:40:22;;;;;;;13.75;9.05;;;;;;;19.18;100.00;101452.13;4699623;30;20041;-73
2022/07/31 07:42:47;;;;;;;11.77;9.30;;;;;;;19.12;100.00;101447.72;4699050;30;20522;-72
2022/07/31 07:45:13;;;;;;;13.82;8.68;;;;;;;19.17;100.00;101453.22;4699317;30;20120;-79
2022/07/31 07:47:39;;;;;;;14.32;9.95;;;;;;;19.22;100.00;101455.16;4699708;30;20070;-77
2022/07/31 07:50:06;;;;;;;13.27;9.40;;;;;;;19.24;100.00;101453.78;4699166;30;20459;-78
2022/07/31 07:52:31;;;;;;;11.45;8.88;;;;;;;19.25;100.00;101455.44;4683657;30;20127;-76
2022/07/31 07:54:57;;;;;;;14.40;10.00;;;;;;;19.26;100.00;101459.00;4699181;30;20574;-78
2022/07/31 07:57:23;;;;;;;14.68;10.45;;;;;;;19.25;100.00;101458.19;4700119;30;20030;-75
2022/07/31 07:59:48;;;;;;;17.65;9.85;;;;;;;19.28;100.00;101451.34;4683798;30;20045;-76
2022/07/31 08:02:14;;;;;;;13.05;9.88;;;;;;;19.30;100.00;101458.19;4696805;30;20409;-73
2022/07/31 08:04:40;;;;;;;12.38;9.35;;;;;;;19.35;100.00;101459.31;4683654;30;20041;-79
2022/07/31 08:07:06;;;;;;;12.95;9.57;;;;;;;19.36;100.00;101450.81;4683949;30;20060;-75
2022/07/31 08:09:32;;;;;;;16.60;10.00;;;;;;;19.42;100.00;101444.25;4683759;30;20037;-76
2022/07/31 08:11:58;;;;;;;13.40;9.27;;;;;;;19.46;100.00;101452.75;4695281;30;20038;-78
2022/07/31 08:14:26;;;;;;;11.18;9.70;;;;;;;19.48;100.00;101442.34;4698535;30;20039;-76
2022/07/31 08:16:52;;;;;;;12.93;9.75;;;;;;;19.51;100.00;101449.22;4699886;30;20034;-77
2022/07/31 08:19:17;;;;;;;13.73;9.90;;;;;;;19.60;100.00;101448.41;4683130;30;20034;-77
2022/07/31 08:21:43;;;;;;;13.38;9.65;;;;;;;19.64;100.00;101446.78;4699498;30;20044;-77
2022/07/31 08:24:10;;;;;;;11.13;9.20;;;;;;;19.69;100.00;101442.38;4699143;30;20111;-77
2022/07/31 08:29:19;;;;;;;10.82;9.02;;;;;;;19.81;100.00;101441.06;4698700;30;20542;-75
2022/07/31 08:31:44;;;;;;;11.55;9.20;;;;;;;19.84;100.00;101439.72;4696078;30;20033;-74
2022/07/31 08:34:09;;;;;;;13.40;9.63;;;;;;;19.85;100.00;101433.09;4697631;30;20049;-76
2022/07/31 08:36:36;;;;;;;12.48;9.10;;;;;;;19.91;100.00;101439.44;4696727;30;20030;-77
2022/07/31 08:39:02;;;;;;;13.45;9.13;;;;;;;19.93;100.00;101446.31;4689377;30;20463;-76
2022/07/31 08:41:28;;;;;;;13.07;8.40;;;;;;;19.93;100.00;101449.06;4691214;30;20044;-71
2022/07/31 08:43:56;;;;;;;11.45;8.27;;;;;;;19.96;100.00;101448.50;4679258;30;22052;-72
2022/07/31 08:46:22;;;;;;;11.60;8.15;;;;;;;19.99;100.00;101445.22;4691769;30;20490;-69
2022/07/31 08:48:53;;;;;;;10.02;8.00;;;;;;;20.01;100.00;101450.44;4696809;30;20069;-70
2022/07/31 08:51:20;;;;;;;10.05;7.72;;;;;;;20.05;100.00;101446.03;4692328;30;20122;-73
2022/07/31 08:53:49;;;;;;;10.13;8.25;;;;;;;20.03;100.00;101452.91;4673066;30;20486;-72
2022/07/31 08:56:16;;;;;;;8.88;7.63;;;;;;;20.05;100.00;101457.03;4689430;30;20476;-72
2022/07/31 08:58:42;;;;;;;12.07;7.53;;;;;;;20.05;100.00;101461.69;4696995;30;20034;-69
2022/07/31 09:01:10;;;;;;;10.00;7.22;;;;;;;20.08;100.00;101455.63;4689069;30;20049;-71
2022/07/31 09:03:35;;;;;;;9.75;7.60;;;;;;;20.08;100.00;101455.63;4695390;30;20098;-71
2022/07/31 09:06:01;;;;;;;11.00;7.78;;;;;;;20.07;100.00;101454.81;4690196;30;20464;-72
2022/07/31 09:08:26;;;;;;;9.18;8.13;;;;;;;;;;4685017;30;20125;-73
2022/07/31 09:11:06;;;;;;;10.35;7.78;;;;;;;20.18;100.00;101444.66;4684205;30;20375;-73
2022/07/31 09:13:36;;;;;;;12.32;7.63;;;;;;;20.21;100.00;101443.28;4682032;30;20038;-72
2022/07/31 09:16:02;;;;;;;9.95;7.22;;;;;;;20.24;100.00;101443.53;4680244;30;20041;-70
2022/07/31 09:18:28;;;;;;;11.90;7.60;;;;;;;20.29;100.00;101443.56;4685112;30;20042;-71
2022/07/31 09:21:05;;;;;;;9.73;7.22;;;;;;;20.34;100.00;101443.53;4678019;30;20030;-73
2022/07/31 09:23:31;;;;;;;10.18;6.90;;;;;;;20.43;100.00;101434.75;4677298;30;20457;-72
2022/07/31 09:26:04;;;;;;;11.80;7.20;;;;;;;20.46;99.93;101428.69;4683677;30;20168;-71
2022/07/31 09:28:37;;;;;;;11.50;7.38;;;;;;;20.56;99.33;101436.09;4683421;30;20044;-72
2022/07/31 09:31:05;;;;;;;8.52;6.93;;;;;;;20.59;98.43;101438.28;4677903;30;20122;-73
2022/07/31 09:33:35;;;;;;;13.93;6.82;;;;;;;20.65;100.00;101438.03;4679482;30;20040;-74
2022/07/31 09:36:01;;;;;;;11.48;7.20;;;;;;;20.71;96.97;101436.91;4669764;30;20049;-72
2022/07/31 09:38:32;;;;;;;9.70;6.32;;;;;;;20.80;96.75;101439.09;4668705;30;20042;-74
2022/07/31 09:41:12;;;;;;;8.60;6.18;;;;;;;20.91;95.56;101434.38;4680231;30;20125;-74
2022/07/31 09:43:38;;;;;;;8.85;6.07;;;;;;;21.03;93.39;101432.13;4683460;30;20042;-75
2022/07/31 09:46:20;;;;;;;9.02;6.28;;;;;;;21.17;92.18;101435.91;4668936;30;20100;-74
2022/07/31 09:48:54;;;;;;;7.93;6.28;;;;;;;21.24;91.09;101413.56;4659551;30;20068;-74
2022/07/31 09:51:21;;;;;;;11.07;5.90;;;;;;;21.31;89.09;101422.34;4675616;30;20529;-74
2022/07/31 09:53:52;;;;;;;7.28;5.63;;;;;;;21.36;89.15;101424.25;4683432;30;20041;-74
2022/07/31 09:56:30;;;;;;;12.65;6.53;;;;;;;21.40;88.09;101419.84;4668514;30;20042;-72
2022/07/31 09:58:59;;;;;;;8.02;5.25;;;;;;;21.52;87.14;101423.09;4683959;30;20539;-74
2022/07/31 10:01:26;;;;;;;10.23;5.10;;;;;;;21.68;85.47;101415.56;4684937;30;20042;-74
2022/07/31 10:03:54;;;;;;;11.57;5.75;;;;;;;21.72;83.38;101418.56;4683305;30;20128;-72
2022/07/31 10:06:22;;;;;;;10.98;5.25;;;;;;;21.68;84.41;101421.06;4684210;30;20504;-73
2022/07/31 10:08:48;;;;;;;7.65;4.80;;;;;;;21.68;84.35;101418.31;4683750;30;20033;-70
2022/07/31 10:11:18;;;;;;;10.63;4.47;;;;;;;21.76;85.76;101423.19;4677700;30;20049;-70
2022/07/31 10:13:46;;;;;;;9.32;4.60;;;;;;;21.83;83.25;101422.06;4676051;30;20108;-69
2022/07/31 10:16:13;;;;;;;7.57;4.63;;;;;;;21.84;82.76;101430.03;4678896;30;20044;-71
2022/07/31 10:18:41;;;;;;;9.18;4.78;;;;;;;21.83;82.72;101427.56;4682829;30;20487;-69
2022/07/31 10:21:10;;;;;;;6.55;4.90;;;;;;;21.79;81.40;101418.25;4682668;30;20041;-72
2022/07/31 10:23:39;;;;;;;7.03;4.43;;;;;;;21.82;82.13;101414.91;4667727;30;20046;-72
2022/07/31 10:26:05;;;;;;;6.28;3.65;;;;;;;21.82;82.34;101420.44;4674066;30;20034;-72
2022/07/31 10:28:31;;;;;;;11.27;4.55;;;;;;;21.87;81.12;101417.63;4667712;30;20045;-71
2022/07/31 10:30:57;;;;;;;10.35;4.50;;;;;;;21.88;80.47;101419.28;4684073;30;20161;-73
2022/07/31 10:33:25;;;;;;;6.07;3.92;;;;;;;21.87;80.22;101407.41;4683572;30;20112;-72
2022/07/31 10:36:04;;;;;;;7.97;3.50;;;;;;;21.99;81.33;101409.78;4682694;30;20100;-72
2022/07/31 10:38:45;;;;;;;9.05;3.95;;;;;;;22.15;79.50;101406.91;4682652;30;20038;-72
2022/07/31 10:41:21;;;;;;;5.35;3.75;;;;;;;22.21;77.39;101408.50;4678228;30;20455;-72
2022/07/31 10:43:51;;;;;;;5.60;3.70;;;;;;;22.23;77.67;101409.03;4665536;30;20121;-73
2022/07/31 10:46:31;;;;;;;4.78;3.80;;;;;;;22.24;76.76;101400.47;4666718;30;20114;-72
2022/07/31 10:48:57;;;;;;;4.70;3.63;;;;;;;22.17;77.02;101407.44;4675677;30;20388;-73
2022/07/31 10:51:22;;;;;;;3.67;3.22;;;;;;;22.13;77.91;101402.53;4681268;30;20034;-71
2022/07/31 10:54:00;;;;;;;5.07;3.30;;;;;;;22.21;78.50;101402.97;4683592;30;20495;-70
2022/07/31 10:56:26;;;;;;;6.18;3.35;;;;;;;22.20;77.23;101404.13;4682899;30;20379;-71
2022/07/31 10:58:56;;;;;;;7.68;3.30;;;;;;;22.19;77.09;101396.94;4682442;30;20072;-71
2022/07/31 11:01:24;;;;;;;5.40;3.53;;;;;;;22.16;77.32;101395.59;4664997;30;20038;-78
2022/07/31 11:04:36;;;;;;;6.65;3.63;;;;;;;22.25;77.70;101395.78;4657269;30;20384;-79
2022/07/31 11:07:13;;;;;;;4.63;3.25;;;;;;;22.36;76.07;101386.34;4665519;30;20088;-72
2022/07/31 11:09:40;;;;;;;4.72;3.22;;;;;;;22.36;77.23;101389.09;4681746;30;20042;-72
2022/07/31 11:12:16;;;;;;;5.28;3.15;;;;;;;22.47;76.97;101378.78;4683052;30;20026;-70
2022/07/31 11:14:42;;;;;;;5.35;3.40;;;;;;;22.51;77.23;101390.03;4667177;30;20034;-74
2022/07/31 11:17:07;;;;;;;6.85;3.28;;;;;;;22.60;76.66;101391.03;4681560;30;20400;-70
2022/07/31 11:19:37;;;;;;;6.60;3.17;;;;;;;22.68;76.64;101393.16;4683607;30;20026;-72
2022/07/31 11:22:12;;;;;;;7.55;3.78;;;;;;;22.71;75.61;101380.72;4680451;30;20034;-69
2022/07/31 11:24:38;;;;;;;7.18;3.35;;;;;;;22.66;75.28;101378.81;4665177;30;20516;-71